Fontana, California
Current Conditions -  °F | °C
As of 4:53 AM on Sunday 21 Dec 2014 (Local Time) from KONT Reporting Station
Haze Haze  
Wind Chill:   Ceiling: Unl
Heat Index:   Visibility: 5mi
Dew Point:   Wind: 3mph
Humidity: 86%   Direction: 60°ENE
Pressure: 30.12"   Gusts: NA
Location:  34.1°N, 117.43°W
Report Text: KONT 211253Z 06003KT 5SM BR SCT200 09/07 A3012 RMK AO2 SLP197 T00890067
Loading
Personal Weather Stations






























Interactive Weather Map New forecast layout! Learn more

10-Day Weather Forecast

Advertisements
Track Severe Weather on mobile